createdAt,value
2018-06-02T00:02:16.418Z,30.04
2018-06-02T00:04:48.468Z,29.99
2018-06-02T00:07:21.551Z,29.95
2018-06-02T00:12:43.465Z,29.72
2018-06-02T00:15:15.219Z,29.70
2018-06-02T00:17:47.309Z,29.69
2018-06-02T00:20:19.120Z,29.68
2018-06-02T00:22:51.087Z,29.64
2018-06-02T00:25:23.095Z,29.63
2018-06-02T00:27:54.586Z,29.70
2018-06-02T00:30:26.258Z,29.65
2018-06-02T00:32:58.845Z,29.83
2018-06-02T00:35:30.578Z,29.90
2018-06-02T00:38:02.967Z,30.04
2018-06-02T00:40:35.133Z,30.05
2018-06-02T00:43:07.103Z,30.09
2018-06-02T00:45:39.243Z,30.12
2018-06-02T00:48:11.262Z,30.16
2018-06-02T00:50:43.217Z,30.23
2018-06-02T00:53:15.221Z,30.28
2018-06-02T00:55:47.241Z,30.33
2018-06-02T00:58:19.488Z,30.38
2018-06-02T01:00:51.263Z,30.38
2018-06-02T01:03:23.247Z,30.50
2018-06-02T01:05:55.253Z,30.52
2018-06-02T01:08:28.888Z,30.56
2018-06-02T01:11:01.286Z,30.53
2018-06-02T01:13:33.291Z,30.57
2018-06-02T01:16:05.242Z,30.59
2018-06-02T01:18:37.250Z,30.63
2018-06-02T01:21:09.278Z,30.60
2018-06-02T01:23:42.599Z,30.61
2018-06-02T01:26:13.096Z,30.59
2018-06-02T01:29:23.714Z,30.65
2018-06-02T01:31:55.496Z,30.57
2018-06-02T01:34:28.536Z,30.60
2018-06-02T01:36:59.064Z,30.57
2018-06-02T01:39:31.226Z,30.53
2018-06-02T01:42:03.567Z,30.53
2018-06-02T01:44:34.503Z,30.58
2018-06-02T01:47:06.296Z,30.58
2018-06-02T01:49:38.538Z,30.63
2018-06-02T01:53:09.599Z,30.60
2018-06-02T01:57:19.490Z,30.66
2018-06-02T01:59:51.268Z,30.60
2018-06-02T02:02:23.258Z,30.61
2018-06-02T02:04:56.284Z,30.61
2018-06-02T02:07:28.502Z,30.66
2018-06-02T02:09:59.492Z,30.62
2018-06-02T02:12:32.484Z,30.67
2018-06-02T02:15:04.506Z,30.60
2018-06-02T02:18:43.509Z,30.60
2018-06-02T02:21:15.237Z,30.57
2018-06-02T02:23:47.266Z,30.49
2018-06-02T02:26:19.253Z,30.57
2018-06-02T02:28:51.221Z,30.58
2018-06-02T02:31:23.244Z,30.60
2018-06-02T02:35:00.480Z,30.57
2018-06-02T02:37:32.240Z,30.58
2018-06-02T02:42:25.948Z,30.48
2018-06-02T02:46:17.574Z,30.57
2018-06-02T02:48:48.339Z,30.54
2018-06-02T02:51:20.424Z,30.50
2018-06-02T02:53:52.302Z,30.47
2018-06-02T02:56:24.287Z,30.47
2018-06-02T02:58:56.266Z,30.43
2018-06-02T03:01:29.085Z,30.35
2018-06-02T03:04:02.479Z,30.42
2018-06-02T03:06:34.567Z,30.31
2018-06-02T03:09:07.497Z,30.33
2018-06-02T03:11:40.565Z,30.26
2018-06-02T03:14:12.570Z,30.35
2018-06-02T03:16:45.050Z,30.32
2018-06-02T03:19:16.562Z,30.32
2018-06-02T03:21:49.233Z,30.39
2018-06-02T03:24:21.551Z,30.43
2018-06-02T03:26:54.626Z,30.41
2018-06-02T03:31:26.613Z,30.53
2018-06-02T03:33:57.409Z,30.45
2018-06-02T03:36:29.258Z,30.58
2018-06-02T03:39:01.262Z,30.59
2018-06-02T03:41:33.410Z,30.64
2018-06-02T03:44:06.114Z,30.69
2018-06-02T03:47:10.476Z,30.79
2018-06-02T03:52:15.591Z,30.96
2018-06-02T03:54:47.405Z,31.00
2018-06-02T03:57:19.492Z,31.12
2018-06-02T03:59:51.530Z,31.89
2018-06-02T04:02:24.565Z,32.53
2018-06-02T04:04:57.563Z,32.65
2018-06-02T04:07:28.101Z,33.00
2018-06-02T04:10:00.502Z,33.04
2018-06-02T04:12:32.505Z,33.25
2018-06-02T04:15:04.488Z,33.09
2018-06-02T04:17:36.574Z,33.03
2018-06-02T04:20:07.404Z,32.92
2018-06-02T04:22:39.312Z,33.03
2018-06-02T04:25:11.252Z,32.93
2018-06-02T04:27:43.263Z,33.00
2018-06-02T04:30:15.241Z,33.04
2018-06-02T04:32:47.529Z,33.09
2018-06-02T04:35:19.538Z,33.20
2018-06-02T04:37:51.616Z,33.26
2018-06-02T04:40:22.537Z,33.32
2018-06-02T04:42:56.032Z,33.33
2018-06-02T04:45:28.525Z,33.42
2018-06-02T04:48:00.521Z,33.39
2018-06-02T04:50:32.626Z,33.44
2018-06-02T04:53:03.400Z,33.45
2018-06-02T04:55:40.111Z,33.49
2018-06-02T04:58:12.528Z,33.65
2018-06-02T05:00:44.544Z,33.51
2018-06-02T05:03:16.627Z,33.68
2018-06-02T05:05:48.537Z,33.79
2018-06-02T05:08:20.539Z,33.68
2018-06-02T05:10:52.531Z,33.71
2018-06-02T05:13:23.333Z,33.89
2018-06-02T05:15:55.538Z,33.94
2018-06-02T05:18:29.710Z,33.99
2018-06-02T05:21:01.582Z,33.88
2018-06-02T05:23:32.121Z,34.00
2018-06-02T05:26:04.267Z,34.00
2018-06-02T05:28:36.225Z,34.16
2018-06-02T05:31:08.270Z,34.24
2018-06-02T05:33:40.273Z,34.36
2018-06-02T05:36:12.263Z,34.38
2018-06-02T05:38:44.579Z,34.40
2018-06-02T05:41:15.384Z,34.46
2018-06-02T05:43:47.271Z,34.38
2018-06-02T05:46:20.263Z,34.54
2018-06-02T05:48:52.248Z,34.67
2018-06-02T05:53:25.791Z,34.79
2018-06-02T05:55:57.565Z,34.83
2018-06-02T05:58:29.595Z,34.88
2018-06-02T06:01:00.108Z,34.98
2018-06-02T06:03:32.235Z,34.99
2018-06-02T06:06:04.220Z,35.02
2018-06-02T06:08:36.252Z,35.16
2018-06-02T06:11:08.474Z,35.26
2018-06-02T06:13:40.233Z,35.37
2018-06-02T06:17:08.534Z,35.53
2018-06-02T06:19:40.223Z,35.65
2018-06-02T06:22:12.414Z,35.68
2018-06-02T06:24:44.230Z,35.78
2018-06-02T06:27:16.216Z,35.87
2018-06-02T06:29:48.233Z,35.97
2018-06-02T06:32:20.486Z,36.08
2018-06-02T06:34:52.326Z,36.12
2018-06-02T06:37:24.369Z,36.23
2018-06-02T06:39:56.508Z,36.30
2018-06-02T06:44:33.641Z,36.36
2018-06-02T06:47:04.536Z,36.47
2018-06-02T06:49:35.382Z,36.54
2018-06-02T06:52:07.529Z,36.64
2018-06-02T06:54:39.530Z,36.69
2018-06-02T06:57:11.538Z,36.67
2018-06-02T07:02:20.750Z,36.99
2018-06-02T07:04:52.626Z,37.01
2018-06-02T07:07:23.512Z,36.95
2018-06-02T07:09:57.507Z,37.02
2018-06-02T07:12:30.677Z,37.11
2018-06-02T07:15:02.774Z,37.16
2018-06-02T07:17:36.857Z,37.21
2018-06-02T07:20:09.814Z,37.29
2018-06-02T07:22:41.865Z,37.28
2018-06-02T07:25:15.540Z,37.33
2018-06-02T07:27:49.833Z,37.34
2018-06-02T07:30:23.531Z,37.43
2018-06-02T07:32:57.687Z,37.51
2018-06-02T07:35:30.106Z,37.54
2018-06-02T07:40:15.581Z,37.54
2018-06-02T07:42:47.536Z,37.47
2018-06-02T07:45:19.563Z,37.42
2018-06-02T07:47:52.605Z,37.48
2018-06-02T07:50:26.891Z,37.56
2018-06-02T07:52:59.329Z,37.41
2018-06-02T07:55:32.748Z,37.58
2018-06-02T07:58:04.966Z,37.91
2018-06-02T08:00:37.535Z,38.06
2018-06-02T08:03:10.628Z,38.19
2018-06-02T08:05:42.877Z,38.25
2018-06-02T08:08:15.576Z,38.33
2018-06-02T08:10:48.615Z,38.41
2018-06-02T08:13:22.015Z,38.46
2018-06-02T08:15:55.733Z,38.52
2018-06-02T08:18:27.670Z,38.41
2018-06-02T08:21:00.660Z,38.52
2018-06-02T08:23:34.315Z,38.53
2018-06-02T08:26:07.539Z,38.60
2018-06-02T08:30:55.262Z,38.61
2018-06-02T08:33:28.650Z,38.70
2018-06-02T08:36:00.733Z,38.68
2018-06-02T08:38:34.771Z,38.59
2018-06-02T08:41:08.969Z,38.68
2018-06-02T08:45:18.851Z,38.67
2018-06-02T08:47:52.504Z,38.74
2018-06-02T08:50:25.524Z,38.73
2018-06-02T08:52:59.503Z,38.81
2018-06-02T08:55:33.704Z,38.83
2018-06-02T08:58:07.863Z,38.86
2018-06-02T09:00:41.626Z,38.81
2018-06-02T09:03:15.887Z,38.80
2018-06-02T09:05:49.572Z,38.84
2018-06-02T09:08:21.654Z,39.00
2018-06-02T09:10:54.646Z,38.93
2018-06-02T09:13:28.639Z,39.27
2018-06-02T09:16:00.548Z,39.24
2018-06-02T09:18:34.716Z,39.26
2018-06-02T09:21:08.840Z,39.34
2018-06-02T09:23:42.890Z,39.35
2018-06-02T09:26:16.623Z,39.39
2018-06-02T09:28:48.752Z,39.42
2018-06-02T09:31:22.842Z,39.40
2018-06-02T09:33:56.621Z,39.42
2018-06-02T09:36:28.814Z,39.35
2018-06-02T09:39:03.267Z,39.37
2018-06-02T09:41:37.886Z,39.49
2018-06-02T09:44:11.898Z,39.47
2018-06-02T09:46:43.542Z,39.50
2018-06-02T09:49:16.822Z,39.53
2018-06-02T09:51:50.351Z,39.58
2018-06-02T09:54:24.505Z,39.58
2018-06-02T09:56:56.772Z,39.58
2018-06-02T09:59:28.554Z,39.47
2018-06-02T10:02:02.953Z,39.51
2018-06-02T10:04:37.305Z,39.51
2018-06-02T10:07:11.634Z,39.52
2018-06-02T10:09:45.538Z,39.53
2018-06-02T10:12:20.252Z,39.48
2018-06-02T10:14:53.524Z,39.17
2018-06-02T10:17:26.537Z,39.25
2018-06-02T10:19:59.542Z,39.41
2018-06-02T10:22:32.612Z,39.48
2018-06-02T10:25:04.823Z,39.53
2018-06-02T10:27:38.713Z,39.63
2018-06-02T10:30:12.872Z,39.65
2018-06-02T10:32:46.884Z,39.65
2018-06-02T10:35:20.104Z,39.73
2018-06-02T10:37:54.622Z,39.66
2018-06-02T10:40:26.496Z,39.67
2018-06-02T10:42:59.630Z,39.73
2018-06-02T10:45:33.339Z,39.75
2018-06-02T10:48:07.876Z,39.73
2018-06-02T10:50:41.894Z,39.70
2018-06-02T10:53:16.110Z,39.75
2018-06-02T10:55:49.254Z,39.79
2018-06-02T10:58:23.987Z,39.81
2018-06-02T11:00:58.121Z,39.85
2018-06-02T11:03:31.746Z,39.84
2018-06-02T11:06:05.517Z,39.95
2018-06-02T11:08:39.178Z,40.00
2018-06-02T11:11:12.630Z,40.07
2018-06-02T11:13:44.510Z,40.08
2018-06-02T11:16:17.586Z,40.06
2018-06-02T11:18:51.545Z,40.12
2018-06-02T11:23:10.242Z,40.16
2018-06-02T11:25:44.683Z,40.20
2018-06-02T11:28:17.764Z,40.31
2018-06-02T11:30:51.837Z,40.26
2018-06-02T11:33:23.543Z,40.38
2018-06-02T11:35:55.760Z,40.27
2018-06-02T11:38:28.583Z,40.41
2018-06-02T11:41:01.724Z,40.43
2018-06-02T11:43:35.247Z,40.32
2018-06-02T11:46:08.515Z,40.51
2018-06-02T11:48:42.511Z,40.46
2018-06-02T11:51:17.123Z,40.52
2018-06-02T11:53:50.240Z,40.56
2018-06-02T11:56:23.525Z,40.60
2018-06-02T11:58:56.506Z,40.53
2018-06-02T12:01:29.882Z,40.79
2018-06-02T12:04:03.922Z,40.60
2018-06-02T12:06:37.727Z,40.69
2018-06-02T12:09:11.738Z,40.69
2018-06-02T12:11:45.599Z,40.57
2018-06-02T12:14:18.352Z,40.51
2018-06-02T12:16:51.667Z,40.52
2018-06-02T12:19:24.578Z,40.80
2018-06-02T12:21:56.493Z,40.85
2018-06-02T12:24:29.481Z,40.82
2018-06-02T12:27:02.867Z,40.82
2018-06-02T12:29:36.880Z,41.00
2018-06-02T12:32:10.526Z,41.16
2018-06-02T12:34:43.531Z,41.24
2018-06-02T12:37:17.498Z,41.32
2018-06-02T12:39:51.910Z,41.33
2018-06-02T12:42:26.027Z,41.39
2018-06-02T12:44:59.048Z,41.39
2018-06-02T12:47:33.013Z,41.42
2018-06-02T12:50:08.062Z,41.50
2018-06-02T12:52:41.620Z,41.47
2018-06-02T12:55:13.512Z,41.54
2018-06-02T12:57:46.567Z,41.67
2018-06-02T13:00:20.239Z,41.54
2018-06-02T13:02:53.277Z,41.57
2018-06-02T13:05:26.889Z,41.52
2018-06-02T13:07:59.526Z,41.62
2018-06-02T13:10:33.887Z,41.66
2018-06-02T13:13:07.726Z,41.73
2018-06-02T13:15:41.237Z,41.76
2018-06-02T13:18:14.586Z,41.88
2018-06-02T13:20:46.509Z,41.73
2018-06-02T13:23:20.849Z,41.62
2018-06-02T13:25:54.258Z,41.71
2018-06-02T13:28:28.034Z,41.65
2018-06-02T13:31:02.510Z,41.70
2018-06-02T13:33:35.507Z,41.75
2018-06-02T13:36:08.709Z,41.79
2018-06-02T13:38:42.059Z,42.04
2018-06-02T13:41:15.251Z,42.11
2018-06-02T13:43:48.866Z,42.19
2018-06-02T13:46:22.210Z,42.17
2018-06-02T13:48:55.581Z,42.24
2018-06-02T13:51:27.511Z,42.33
2018-06-02T13:54:01.534Z,42.01
2018-06-02T13:56:35.267Z,42.35
2018-06-02T13:59:10.289Z,42.35
2018-06-02T14:01:44.348Z,42.31
2018-06-02T14:04:17.859Z,42.28
2018-06-02T14:09:46.801Z,42.50
2018-06-02T14:12:20.484Z,42.43
2018-06-02T14:14:54.572Z,42.50
2018-06-02T14:17:26.702Z,42.59
2018-06-02T14:19:59.603Z,42.49
2018-06-02T14:22:31.666Z,42.42
2018-06-02T14:25:03.822Z,42.25
2018-06-02T14:27:37.915Z,42.29
2018-06-02T14:30:11.566Z,42.29
2018-06-02T14:32:43.537Z,42.25
2018-06-02T14:35:16.236Z,42.17
2018-06-02T14:37:49.869Z,42.26
2018-06-02T14:40:26.085Z,42.49
2018-06-02T14:42:59.735Z,42.41
2018-06-02T14:45:33.209Z,42.27
2018-06-02T14:48:07.605Z,42.29
2018-06-02T14:50:40.746Z,42.13
2018-06-02T14:53:14.731Z,42.21
2018-06-02T14:55:47.686Z,42.25
2018-06-02T14:58:21.477Z,42.31
2018-06-02T15:00:56.471Z,42.23
2018-06-02T15:03:29.252Z,42.15
2018-06-02T15:06:02.732Z,42.05
2018-06-02T15:08:36.634Z,42.02
2018-06-02T15:11:08.691Z,41.76
2018-06-02T15:13:41.591Z,41.76
2018-06-02T15:16:13.403Z,41.71
2018-06-02T15:18:47.237Z,41.72
2018-06-02T15:21:20.216Z,41.67
2018-06-02T15:23:53.700Z,41.63
2018-06-02T15:26:26.549Z,41.59
2018-06-02T15:29:00.711Z,41.62
2018-06-02T15:31:34.921Z,41.51
2018-06-02T15:34:08.502Z,41.45
2018-06-02T15:36:41.766Z,41.31
2018-06-02T15:39:15.699Z,41.28
2018-06-02T15:41:49.695Z,41.25
2018-06-02T15:44:23.706Z,41.23
2018-06-02T15:46:57.509Z,41.18
2018-06-02T15:49:31.599Z,41.19
2018-06-02T15:52:05.483Z,41.07
2018-06-02T15:54:39.259Z,40.91
2018-06-02T15:57:17.704Z,40.93
2018-06-02T15:59:50.486Z,41.74
2018-06-02T16:02:26.066Z,42.86
2018-06-02T16:04:59.504Z,43.09
2018-06-02T16:07:32.244Z,42.46
2018-06-02T16:10:05.713Z,43.18
2018-06-02T16:12:39.713Z,44.01
2018-06-02T16:15:13.625Z,42.78
2018-06-02T16:17:45.990Z,43.83
2018-06-02T16:20:19.246Z,43.63
2018-06-02T16:22:52.566Z,43.45
2018-06-02T16:25:25.868Z,43.28
2018-06-02T16:27:59.888Z,43.05
2018-06-02T16:30:33.861Z,42.78
2018-06-02T16:33:07.503Z,42.64
2018-06-02T16:35:40.581Z,42.56
2018-06-02T16:38:12.508Z,42.42
2018-06-02T16:40:45.656Z,42.19
2018-06-02T16:43:17.715Z,42.06
2018-06-02T16:45:51.817Z,42.02
2018-06-02T16:48:25.766Z,41.98
2018-06-02T16:50:59.839Z,41.86
2018-06-02T16:53:32.282Z,41.73
2018-06-02T16:56:04.755Z,41.58
2018-06-02T16:58:38.549Z,41.47
2018-06-02T17:01:10.567Z,41.28
2018-06-02T17:03:43.631Z,41.17
2018-06-02T17:06:16.633Z,41.13
2018-06-02T17:08:49.924Z,40.95
2018-06-02T17:11:23.617Z,40.87
2018-06-02T17:13:55.874Z,40.55
2018-06-02T17:16:27.835Z,40.44
2018-06-02T17:19:01.549Z,40.28
2018-06-02T17:21:34.541Z,40.28
2018-06-02T17:24:07.626Z,40.18
2018-06-02T17:26:40.527Z,40.14
2018-06-02T17:29:15.027Z,40.10
2018-06-02T17:31:46.841Z,39.96
2018-06-02T17:34:20.544Z,39.79
2018-06-02T17:36:54.732Z,39.65
2018-06-02T17:39:28.358Z,39.51
2018-06-02T17:42:01.615Z,39.39
2018-06-02T17:44:35.845Z,39.41
2018-06-02T17:47:09.857Z,39.34
2018-06-02T17:49:43.594Z,39.16
2018-06-02T17:52:15.732Z,39.09
2018-06-02T17:54:49.855Z,38.98
2018-06-02T17:57:23.924Z,38.88
2018-06-02T17:59:57.568Z,38.69
2018-06-02T18:02:30.689Z,38.68
2018-06-02T18:05:05.491Z,38.55
2018-06-02T18:07:39.712Z,38.49
2018-06-02T18:10:13.930Z,38.48
2018-06-02T18:12:47.725Z,38.37
2018-06-02T18:15:21.571Z,38.22
2018-06-02T18:17:55.238Z,38.20
2018-06-02T18:20:28.728Z,38.25
2018-06-02T18:23:02.946Z,38.13
2018-06-02T18:25:36.754Z,38.13
2018-06-02T18:28:10.950Z,37.68
2018-06-02T18:30:43.757Z,37.65
2018-06-02T18:33:17.799Z,37.91
2018-06-02T18:35:51.616Z,37.78
2018-06-02T18:38:23.866Z,37.54
2018-06-02T18:44:15.789Z,37.49
2018-06-02T18:46:52.800Z,37.80
2018-06-02T18:49:30.568Z,36.37
2018-06-02T18:52:08.118Z,36.49
2018-06-02T18:54:45.551Z,37.23
2018-06-02T18:57:23.093Z,37.11
2018-06-02T18:59:59.433Z,37.02
2018-06-02T19:02:35.011Z,36.42
2018-06-02T19:05:11.827Z,36.32
2018-06-02T19:07:50.125Z,35.14
2018-06-02T19:10:28.602Z,35.82
2018-06-02T19:13:59.258Z,34.91
2018-06-02T19:16:37.106Z,35.34
2018-06-02T19:19:15.357Z,35.91
2018-06-02T19:21:52.080Z,34.10
2018-06-02T19:24:29.217Z,33.50
2018-06-02T19:27:05.836Z,33.81
2018-06-02T19:29:43.329Z,34.31
2018-06-02T19:32:20.783Z,33.54
2018-06-02T19:34:57.967Z,33.61
2018-06-02T19:37:35.280Z,33.29
2018-06-02T19:40:10.022Z,33.34
2018-06-02T19:42:46.758Z,33.73
2018-06-02T19:45:23.459Z,32.26
2018-06-02T19:48:00.096Z,33.22
2018-06-02T19:50:36.568Z,31.96
2018-06-02T19:53:13.777Z,32.44
2018-06-02T19:55:51.352Z,31.94
2018-06-02T19:58:29.337Z,31.62
2018-06-02T20:01:06.498Z,32.64
2018-06-02T20:03:43.914Z,31.55
2018-06-02T20:06:21.343Z,31.61
2018-06-02T20:08:59.650Z,31.32
2018-06-02T20:11:36.818Z,30.66
2018-06-02T20:14:14.446Z,30.86
2018-06-02T20:16:52.488Z,31.64
2018-06-02T20:19:29.251Z,31.24
2018-06-02T20:22:06.667Z,30.55
2018-06-02T20:24:44.244Z,31.02
2018-06-02T20:27:19.782Z,30.85
2018-06-02T20:29:58.318Z,30.77
2018-06-02T20:32:36.338Z,30.42
2018-06-02T20:35:13.298Z,29.78
2018-06-02T20:37:51.080Z,29.91
2018-06-02T20:40:28.524Z,30.00
2018-06-02T20:43:06.082Z,29.17
2018-06-02T20:45:41.410Z,29.58
2018-06-02T20:48:18.317Z,29.41
2018-06-02T20:50:56.348Z,29.89
2018-06-02T20:53:32.729Z,29.36
2018-06-02T20:56:10.089Z,28.81
2018-06-02T20:58:46.255Z,28.53
2018-06-02T21:01:23.509Z,28.91
2018-06-02T21:04:01.089Z,29.14
2018-06-02T21:06:38.084Z,28.98
2018-06-02T21:09:15.484Z,28.81
2018-06-02T21:11:52.281Z,28.00
2018-06-02T21:14:27.206Z,28.35
2018-06-02T21:17:04.094Z,28.24
2018-06-02T21:19:40.558Z,28.42
2018-06-02T21:22:14.793Z,28.88
2018-06-02T21:24:51.537Z,28.69
2018-06-02T21:27:28.091Z,27.57
2018-06-02T21:30:05.096Z,28.10
2018-06-02T21:32:42.287Z,28.09
2018-06-02T21:35:19.097Z,27.53
2018-06-02T21:37:56.418Z,28.30
2018-06-02T21:40:32.427Z,28.14
2018-06-02T21:43:09.418Z,28.05
2018-06-02T21:45:43.997Z,27.52
2018-06-02T21:51:06.739Z,27.28
2018-06-02T21:53:43.307Z,26.86
2018-06-02T21:56:20.085Z,26.48
2018-06-02T21:58:57.410Z,27.57
2018-06-02T22:04:17.404Z,27.31
2018-06-02T22:06:53.888Z,26.30
2018-06-02T22:09:31.092Z,26.36
2018-06-02T22:12:08.094Z,26.63
2018-06-02T22:14:45.092Z,27.29
2018-06-02T22:17:22.304Z,26.38
2018-06-02T22:19:59.748Z,25.17
2018-06-02T22:22:37.069Z,26.10
2018-06-02T22:25:13.902Z,24.77
2018-06-02T22:27:51.458Z,25.50
2018-06-02T22:30:28.091Z,24.69
2018-06-02T22:33:05.311Z,25.19
2018-06-02T22:35:42.484Z,25.10
2018-06-02T22:38:19.750Z,25.19
2018-06-02T22:40:58.072Z,24.69
2018-06-02T22:43:34.808Z,25.55
2018-06-02T22:46:12.094Z,24.68
2018-06-02T22:48:48.762Z,24.70
2018-06-02T22:52:33.831Z,24.60
2018-06-02T22:55:10.814Z,24.32
2018-06-02T22:57:47.416Z,25.53
2018-06-02T23:00:26.684Z,23.50
2018-06-02T23:03:03.563Z,24.43
2018-06-02T23:05:40.266Z,24.09
2018-06-02T23:08:17.211Z,24.27
2018-06-02T23:10:53.874Z,23.54
2018-06-02T23:13:31.287Z,23.97
2018-06-02T23:16:08.070Z,24.43
2018-06-02T23:18:43.866Z,24.54
2018-06-02T23:24:12.097Z,23.71
2018-06-02T23:26:48.091Z,23.97
2018-06-02T23:29:24.090Z,23.53
2018-06-02T23:32:00.090Z,23.80
2018-06-02T23:34:35.870Z,23.57
2018-06-02T23:37:11.097Z,23.26
2018-06-02T23:39:47.074Z,23.38
2018-06-02T23:42:22.750Z,23.36
2018-06-02T23:44:58.327Z,24.10
2018-06-02T23:47:34.211Z,23.85
2018-06-02T23:50:09.876Z,23.44
2018-06-02T23:52:45.483Z,23.36
2018-06-02T23:55:21.063Z,24.14
2018-06-02T23:57:57.206Z,23.41
